Time;durP1;ratioP1;P1;durP2;ratioP2;P2;SDS_P1;SDS_P2;PMS_P1;PMS_P2;Temp;Humidity;BMP_temperature;BMP_pressure;BME280_temperature;BME280_humidity;BME280_pressure;Samples;Min_cycle;Max_cycle;Signal;HPM_P1;HPM_P2
2024/03/04 00:02:09;;;;;;;19.42;10.30;;;8.30;99.90;;;;;;7382504;19;20019;-78
2024/03/04 00:04:40;;;;;;;17.10;9.90;;;8.40;99.90;;;;;;7404705;19;20003;-79
2024/03/04 00:07:09;;;;;;;22.05;10.07;;;8.30;99.90;;;;;;7381884;19;20653;-78
2024/03/04 00:09:38;;;;;;;19.75;9.98;;;8.30;99.90;;;;;;7382873;19;20078;-78
2024/03/04 00:12:07;;;;;;;21.58;10.30;;;8.30;99.90;;;;;;7385507;19;20003;-79
2024/03/04 00:14:37;;;;;;;16.05;10.02;;;8.30;99.90;;;;;;7386714;19;20007;-78
2024/03/04 00:17:06;;;;;;;23.77;9.98;;;8.40;99.90;;;;;;7384566;19;20014;-78
2024/03/04 00:19:36;;;;;;;21.48;10.80;;;8.30;99.90;;;;;;7409153;19;20038;-78
2024/03/04 00:22:07;;;;;;;20.88;9.35;;;8.30;99.90;;;;;;7386181;19;20011;-79
2024/03/04 00:24:36;;;;;;;21.40;10.45;;;8.30;99.90;;;;;;7385138;19;20010;-78
2024/03/04 00:27:05;;;;;;;21.05;10.43;;;8.30;99.90;;;;;;7384386;19;20277;-78
2024/03/04 00:29:34;;;;;;;20.70;10.55;;;8.20;99.90;;;;;;7384261;19;20035;-79
2024/03/04 00:32:03;;;;;;;24.52;10.75;;;8.10;99.90;;;;;;7384117;19;20006;-79
2024/03/04 00:34:32;;;;;;;21.83;10.27;;;8.00;99.90;;;;;;7409386;19;20036;-81
2024/03/04 00:37:02;;;;;;;16.35;8.40;;;8.00;99.90;;;;;;7383535;19;20026;-78
2024/03/04 00:39:33;;;;;;;16.45;8.88;;;8.00;99.90;;;;;;7384497;19;20006;-78
2024/03/04 00:42:02;;;;;;;13.57;7.85;;;7.90;99.90;;;;;;7385073;19;20471;-79
2024/03/04 00:44:30;;;;;;;14.80;8.45;;;8.00;99.90;;;;;;7383557;19;20013;-79
2024/03/04 00:46:59;;;;;;;22.52;10.13;;;8.00;99.90;;;;;;7391214;19;20024;-79
2024/03/04 00:49:29;;;;;;;15.52;8.52;;;8.00;99.90;;;;;;7408616;19;20011;-78
2024/03/04 00:51:59;;;;;;;20.70;9.55;;;8.00;99.90;;;;;;7397811;19;20043;-77
2024/03/04 00:54:27;;;;;;;16.20;9.00;;;8.00;99.90;;;;;;7400416;19;20058;-78
2024/03/04 00:56:59;;;;;;;23.08;10.02;;;8.00;99.90;;;;;;7402445;19;20015;-79
2024/03/04 00:59:30;;;;;;;18.48;9.07;;;7.90;99.90;;;;;;7400947;19;20007;-80
2024/03/04 01:01:59;;;;;;;32.47;10.50;;;7.90;99.90;;;;;;7424199;19;20015;-80
2024/03/04 01:04:27;;;;;;;20.27;10.25;;;7.90;99.90;;;;;;7396830;19;20232;-79
2024/03/04 01:06:57;;;;;;;31.52;10.82;;;7.80;99.90;;;;;;7385139;19;20395;-81
2024/03/04 01:09:25;;;;;;;21.60;9.77;;;7.70;99.90;;;;;;7383720;19;20007;-80
2024/03/04 01:11:54;;;;;;;20.48;10.15;;;7.70;99.90;;;;;;7386664;19;20023;-79
2024/03/04 01:14:26;;;;;;;22.85;10.35;;;7.70;99.90;;;;;;7390243;19;20059;-80
2024/03/04 01:16:54;;;;;;;;;;;7.60;99.90;;;;;;7402586;19;20019;-78
2024/03/04 01:19:23;;;;;;;19.88;8.75;;;7.70;99.90;;;;;;7382299;19;19928;-80
2024/03/04 01:21:52;;;;;;;19.27;9.60;;;7.60;99.90;;;;;;7379963;19;20437;-81
2024/03/04 01:24:21;;;;;;;16.42;8.73;;;7.60;99.90;;;;;;7382197;19;20023;-79
2024/03/04 01:26:51;;;;;;;15.60;8.10;;;7.60;99.90;;;;;;7385015;19;20019;-78
2024/03/04 01:29:20;;;;;;;18.23;8.40;;;7.60;99.90;;;;;;7379755;19;20007;-78
2024/03/04 01:31:51;;;;;;;20.08;9.55;;;7.70;99.90;;;;;;7399926;19;20010;-78
2024/03/04 01:34:20;;;;;;;18.88;9.50;;;7.60;99.90;;;;;;7380537;19;20007;-78
2024/03/04 01:36:49;;;;;;;25.77;9.80;;;7.60;99.90;;;;;;7381147;19;20011;-77
2024/03/04 01:39:18;;;;;;;21.23;9.85;;;7.60;99.90;;;;;;7386001;19;20005;-78
2024/03/04 01:41:46;;;;;;;18.70;9.45;;;7.60;99.90;;;;;;7385347;19;20003;-78
2024/03/04 01:44:15;;;;;;;13.23;7.05;;;7.50;99.90;;;;;;7381248;19;20019;-78
2024/03/04 01:46:46;;;;;;;20.83;8.50;;;7.40;99.90;;;;;;7402268;19;20014;-78
2024/03/04 01:49:17;;;;;;;10.32;5.90;;;7.50;99.90;;;;;;7381038;19;20007;-77
2024/03/04 01:51:46;;;;;;;15.00;7.05;;;7.50;99.90;;;;;;7381975;19;20002;-78
2024/03/04 01:54:16;;;;;;;15.82;6.30;;;7.50;99.90;;;;;;7381640;19;20007;-78
2024/03/04 01:56:45;;;;;;;16.65;8.10;;;7.50;99.90;;;;;;7380772;19;20006;-78
2024/03/04 01:59:15;;;;;;;15.27;8.10;;;7.50;99.90;;;;;;7382002;19;20010;-80
2024/03/04 02:01:44;;;;;;;13.57;7.70;;;7.50;99.90;;;;;;7401474;19;20019;-79
2024/03/04 02:04:18;;;;;;;17.25;8.27;;;7.50;99.90;;;;;;7384600;19;20046;-80
2024/03/04 02:06:47;;;;;;;11.88;6.13;;;7.50;99.90;;;;;;7393969;19;20394;-80
2024/03/04 02:09:18;;;;;;;11.80;6.82;;;7.50;99.90;;;;;;7382247;19;20032;-80
2024/03/04 02:11:46;;;;;;;17.80;7.90;;;7.50;99.90;;;;;;7379860;19;20062;-80
2024/03/04 02:14:15;;;;;;;17.45;7.72;;;7.50;99.90;;;;;;7380954;19;20018;-79
2024/03/04 02:16:45;;;;;;;18.25;6.82;;;7.50;99.90;;;;;;7401591;19;20019;-79
2024/03/04 02:19:20;;;;;;;11.68;6.50;;;7.50;99.90;;;;;;7381306;19;20011;-79
2024/03/04 02:21:57;;;;;;;11.82;6.75;;;7.60;99.90;;;;;;7379261;19;20017;-78
2024/03/04 02:24:31;;;;;;;14.20;7.20;;;7.50;99.90;;;;;;7381351;19;20051;-79
2024/03/04 02:27:00;;;;;;;15.77;8.13;;;7.50;99.90;;;;;;7379784;19;20018;-79
2024/03/04 02:29:28;;;;;;;14.30;7.15;;;7.50;99.90;;;;;;7380008;19;20269;-78
2024/03/04 02:31:59;;;;;;;15.27;6.72;;;7.50;99.90;;;;;;7404774;19;20007;-79
2024/03/04 02:34:28;;;;;;;23.70;9.30;;;7.40;99.90;;;;;;7387572;19;20050;-79
2024/03/04 02:36:58;;;;;;;26.10;9.40;;;7.40;99.90;;;;;;7379358;19;20062;-78
2024/03/04 02:39:30;;;;;;;20.17;9.15;;;7.50;99.90;;;;;;7380145;19;20010;-79
2024/03/04 02:41:59;;;;;;;23.50;9.25;;;7.50;99.90;;;;;;7382045;19;20019;-80
2024/03/04 02:44:28;;;;;;;23.13;8.57;;;7.40;99.90;;;;;;7382031;19;20015;-80
2024/03/04 02:46:57;;;;;;;17.52;7.80;;;7.40;99.90;;;;;;7406075;19;20028;-81
2024/03/04 02:49:26;;;;;;;21.58;7.93;;;7.40;99.90;;;;;;7390961;19;20015;-81
2024/03/04 02:51:56;;;;;;;17.95;8.23;;;7.40;99.90;;;;;;7390045;19;20078;-80
2024/03/04 02:54:24;;;;;;;15.00;7.75;;;7.40;99.90;;;;;;7389609;19;20011;-80
2024/03/04 02:56:56;;;;;;;19.92;8.73;;;7.40;99.90;;;;;;7388654;19;20062;-79
2024/03/04 02:59:25;;;;;;;19.35;8.32;;;7.40;99.90;;;;;;7395808;19;20005;-77
2024/03/04 03:01:54;;;;;;;13.30;7.07;;;7.40;99.90;;;;;;7407247;19;20007;-79
2024/03/04 03:04:26;;;;;;;11.90;6.20;;;7.40;99.90;;;;;;7387214;19;20051;-79
2024/03/04 03:06:55;;;;;;;15.27;5.63;;;7.40;99.90;;;;;;7389207;19;20017;-79
2024/03/04 03:09:23;;;;;;;9.60;4.95;;;7.40;99.90;;;;;;7386936;19;20019;-79
2024/03/04 03:11:55;;;;;;;8.40;5.25;;;7.30;99.90;;;;;;7386690;19;20007;-81
2024/03/04 03:14:24;;;;;;;;;;;7.30;99.90;;;;;;7387122;19;20158;-79
2024/03/04 03:16:52;;;;;;;9.98;5.32;;;7.20;99.90;;;;;;7408628;19;19923;-80
2024/03/04 03:19:25;;;;;;;11.57;5.88;;;7.20;99.90;;;;;;7385410;19;20075;-79
2024/03/04 03:21:55;;;;;;;11.90;7.20;;;7.10;99.90;;;;;;7387187;19;20378;-79
2024/03/04 03:24:24;;;;;;;21.37;7.00;;;7.10;99.90;;;;;;7389011;19;20007;-79
2024/03/04 03:26:56;;;;;;;23.70;6.15;;;7.10;99.90;;;;;;7390608;19;20247;-79
2024/03/04 03:29:25;;;;;;;;;;;7.10;99.90;;;;;;7386404;19;20011;-79
2024/03/04 03:31:54;;;;;;;9.35;4.75;;;7.20;99.90;;;;;;7407824;19;19921;-79
2024/03/04 03:34:23;;;;;;;6.53;4.15;;;7.10;99.90;;;;;;7385218;19;20009;-79
2024/03/04 03:36:51;;;;;;;13.52;5.10;;;7.10;99.90;;;;;;7386583;19;20014;-80
2024/03/04 03:39:20;;;;;;;50.80;6.40;;;7.10;99.90;;;;;;7388325;19;19999;-80
2024/03/04 03:41:49;;;;;;;22.48;5.53;;;7.10;99.90;;;;;;7391154;19;20032;-80
2024/03/04 03:44:21;;;;;;;14.15;5.95;;;7.10;99.90;;;;;;7387510;19;20038;-80
2024/03/04 03:46:53;;;;;;;18.45;6.72;;;7.10;99.90;;;;;;7406938;19;20016;-80
2024/03/04 03:49:22;;;;;;;16.40;6.85;;;7.00;99.90;;;;;;7387973;19;20401;-81
2024/03/04 03:51:51;;;;;;;11.82;6.95;;;7.00;99.90;;;;;;7391587;19;20011;-81
2024/03/04 03:54:20;;;;;;;12.38;6.13;;;6.90;99.90;;;;;;7408117;19;20003;-81
2024/03/04 03:56:48;;;;;;;13.65;5.93;;;6.90;99.90;;;;;;7410387;19;20006;-81
2024/03/04 03:59:20;;;;;;;15.68;6.22;;;7.00;99.90;;;;;;7407911;19;20080;-80
2024/03/04 04:01:49;;;;;;;10.00;6.10;;;7.00;99.90;;;;;;7431589;19;20006;-80
2024/03/04 04:04:18;;;;;;;21.27;7.18;;;6.90;99.90;;;;;;7409622;19;19998;-79
2024/03/04 04:06:47;;;;;;;14.27;7.00;;;6.90;99.90;;;;;;7408897;19;20011;-79
2024/03/04 04:09:17;;;;;;;16.20;6.25;;;7.00;99.90;;;;;;7401507;19;20020;-80
2024/03/04 04:11:46;;;;;;;11.57;6.28;;;7.00;99.90;;;;;;7387152;19;20010;-80
2024/03/04 04:14:15;;;;;;;15.45;6.97;;;6.90;99.90;;;;;;7382180;19;20019;-78
2024/03/04 04:16:47;;;;;;;16.33;5.95;;;7.00;99.90;;;;;;7403931;19;20021;-79
2024/03/04 04:19:16;;;;;;;12.05;6.05;;;7.00;99.90;;;;;;7391646;19;20003;-79
2024/03/04 04:21:45;;;;;;;16.10;6.03;;;7.00;99.90;;;;;;7383955;19;20296;-79
2024/03/04 04:24:15;;;;;;;7.80;4.95;;;6.90;99.90;;;;;;7384151;19;20066;-80
2024/03/04 04:26:44;;;;;;;16.33;5.60;;;6.90;99.90;;;;;;7382566;19;20081;-79
2024/03/04 04:29:12;;;;;;;21.63;6.55;;;6.90;99.90;;;;;;7403995;19;20007;-79
2024/03/04 04:31:41;;;;;;;10.00;5.78;;;6.90;99.90;;;;;;7407164;19;20022;-79
2024/03/04 04:34:12;;;;;;;10.35;5.72;;;6.90;99.90;;;;;;7385443;19;20278;-79
2024/03/04 04:36:51;;;;;;;11.00;5.78;;;6.90;99.90;;;;;;7384823;19;20011;-79
2024/03/04 04:39:20;;;;;;;10.82;5.45;;;6.90;99.90;;;;;;7383942;19;20074;-79
2024/03/04 04:41:49;;;;;;;12.27;6.05;;;6.90;99.90;;;;;;7382011;19;20011;-78
2024/03/04 04:44:17;;;;;;;11.75;5.80;;;6.90;99.90;;;;;;7384313;19;20018;-79
2024/03/04 04:46:46;;;;;;;10.98;5.57;;;6.90;99.90;;;;;;7412865;19;20023;-78
2024/03/04 04:49:17;;;;;;;8.43;5.32;;;6.90;99.90;;;;;;7386524;19;20011;-79
2024/03/04 04:51:46;;;;;;;;;;;6.90;99.90;;;;;;7384019;19;20064;-78
2024/03/04 04:54:15;;;;;;;10.32;5.00;;;7.00;99.90;;;;;;7382791;19;19920;-79
2024/03/04 04:56:44;;;;;;;9.55;4.95;;;6.90;99.90;;;;;;7383211;19;20027;-80
2024/03/04 04:59:13;;;;;;;10.13;5.63;;;6.90;99.90;;;;;;7405878;19;20356;-79
2024/03/04 05:01:41;;;;;;;12.30;5.25;;;6.90;99.90;;;;;;7384381;19;20279;-79
2024/03/04 05:04:10;;;;;;;10.10;5.35;;;6.90;99.90;;;;;;7381390;19;20064;-79
2024/03/04 05:06:41;;;;;;;10.43;4.88;;;6.90;99.90;;;;;;7381020;19;20011;-79
2024/03/04 05:09:10;;;;;;;7.75;4.85;;;6.80;99.90;;;;;;7378199;19;20062;-80
2024/03/04 05:11:39;;;;;;;17.85;6.13;;;6.80;99.90;;;;;;7387807;19;20007;-79
2024/03/04 05:14:11;;;;;;;11.10;5.13;;;6.90;99.90;;;;;;7404746;19;20020;-79
2024/03/04 05:16:41;;;;;;;10.45;5.50;;;6.90;99.90;;;;;;7381826;19;20010;-79
2024/03/04 05:19:10;;;;;;;11.77;5.10;;;6.90;99.90;;;;;;7381613;19;20011;-79
2024/03/04 05:21:43;;;;;;;13.07;5.20;;;6.90;99.90;;;;;;7381625;19;20456;-80
2024/03/04 05:24:12;;;;;;;9.02;5.13;;;6.90;99.90;;;;;;7383396;19;20233;-80
2024/03/04 05:26:45;;;;;;;10.25;5.10;;;6.90;99.90;;;;;;7384630;19;20014;-79
2024/03/04 05:29:13;;;;;;;11.05;5.55;;;6.80;99.90;;;;;;7405355;19;20054;-79
2024/03/04 05:31:54;;;;;;;11.43;5.10;;;6.80;99.90;;;;;;7385731;19;20018;-79
2024/03/04 05:34:23;;;;;;;9.97;5.43;;;6.80;99.90;;;;;;7383633;19;20022;-79
2024/03/04 05:36:55;;;;;;;12.23;5.55;;;6.80;99.90;;;;;;7388887;19;20062;-79
2024/03/04 05:39:31;;;;;;;12.27;5.72;;;6.80;99.90;;;;;;7387809;19;20109;-79
2024/03/04 05:42:00;;;;;;;11.65;5.47;;;6.70;99.90;;;;;;7384264;19;20006;-79
2024/03/04 05:44:28;;;;;;;10.45;4.95;;;6.70;99.90;;;;;;7383384;19;20024;-79
2024/03/04 05:46:57;;;;;;;7.85;4.55;;;6.70;99.90;;;;;;7403092;19;20006;-79
2024/03/04 05:49:26;;;;;;;12.48;5.22;;;6.70;99.90;;;;;;7380211;19;20010;-80
2024/03/04 05:51:58;;;;;;;9.02;4.53;;;6.60;99.90;;;;;;7382775;19;20002;-80
2024/03/04 05:54:27;;;;;;;12.10;4.30;;;6.60;99.90;;;;;;7380146;19;20010;-79
2024/03/04 05:56:56;;;;;;;9.10;4.63;;;6.60;99.90;;;;;;7379727;19;20230;-80
2024/03/04 05:59:25;;;;;;;20.50;5.93;;;6.70;99.90;;;;;;7379606;19;20003;-80
2024/03/04 06:01:54;;;;;;;7.97;5.05;;;6.60;99.90;;;;;;7400310;19;20015;-78
2024/03/04 06:04:24;;;;;;;15.05;5.78;;;6.70;99.90;;;;;;7386571;19;20348;-80
2024/03/04 06:06:52;;;;;;;10.20;5.25;;;6.60;99.90;;;;;;7385273;19;20374;-80
2024/03/04 06:09:26;;;;;;;10.88;4.97;;;6.60;99.90;;;;;;7381716;19;20074;-79
2024/03/04 06:11:55;;;;;;;11.10;5.97;;;6.60;99.90;;;;;;7380318;19;20007;-79
2024/03/04 06:14:23;;;;;;;9.55;5.18;;;6.60;99.90;;;;;;7382362;19;20019;-79
2024/03/04 06:16:52;;;;;;;8.77;4.82;;;6.60;99.90;;;;;;7403360;19;20032;-80
2024/03/04 06:19:23;;;;;;;15.18;5.30;;;6.60;99.90;;;;;;7378837;19;20015;-80
2024/03/04 06:21:52;;;;;;;10.38;4.93;;;6.60;99.90;;;;;;7390541;19;20011;-80
2024/03/04 06:24:23;;;;;;;6.32;4.18;;;6.60;99.90;;;;;;7391549;19;20023;-79
2024/03/04 06:26:51;;;;;;;;;;;6.50;99.90;;;;;;7387254;19;20010;-80
2024/03/04 06:29:20;;;;;;;11.55;5.32;;;6.60;99.90;;;;;;7389724;19;19915;-79
2024/03/04 06:31:51;;;;;;;9.82;5.45;;;6.50;99.90;;;;;;7417483;19;20276;-79
2024/03/04 06:34:19;;;;;;;15.35;5.70;;;6.50;99.90;;;;;;7387198;19;20011;-80
2024/03/04 06:36:48;;;;;;;8.68;4.53;;;6.50;99.90;;;;;;7386327;19;20500;-78
2024/03/04 06:39:20;;;;;;;9.90;4.72;;;6.50;99.90;;;;;;7387310;19;20244;-80
2024/03/04 06:41:52;;;;;;;6.05;4.03;;;6.50;99.90;;;;;;7388597;19;20014;-79
2024/03/04 06:44:21;;;;;;;9.68;3.90;;;6.50;99.90;;;;;;7385724;19;20066;-79
2024/03/04 06:46:49;;;;;;;21.83;4.68;;;6.50;99.90;;;;;;7406372;19;20006;-79
2024/03/04 06:49:18;;;;;;;12.85;6.00;;;6.60;99.90;;;;;;7387859;19;20015;-79
2024/03/04 06:51:47;;;;;;;7.32;4.70;;;6.60;99.90;;;;;;7387115;19;20013;-79
2024/03/04 06:54:16;;;;;;;10.38;4.82;;;6.70;99.90;;;;;;7389565;19;20011;-79
2024/03/04 06:56:46;;;;;;;8.77;4.93;;;6.70;99.90;;;;;;7393037;19;20006;-79
2024/03/04 06:59:18;;;;;;;11.90;5.60;;;6.70;99.90;;;;;;7426083;19;20015;-77
2024/03/04 07:01:46;;;;;;;24.73;6.00;;;6.60;99.90;;;;;;7405989;19;20076;-79
2024/03/04 07:04:15;;;;;;;12.20;6.15;;;6.60;99.90;;;;;;7406881;19;20024;-78
2024/03/04 07:06:44;;;;;;;9.13;5.03;;;6.60;99.90;;;;;;7407270;19;20021;-78
2024/03/04 07:09:13;;;;;;;15.50;5.40;;;6.60;99.90;;;;;;7406316;19;20026;-78
2024/03/04 07:11:41;;;;;;;10.35;5.75;;;6.60;99.90;;;;;;7396801;19;20006;-76
2024/03/04 07:14:10;;;;;;;11.68;5.95;;;6.70;99.90;;;;;;7418535;19;20019;-76
2024/03/04 07:16:41;;;;;;;11.85;5.90;;;6.70;99.90;;;;;;7385680;19;20023;-76
2024/03/04 07:19:10;;;;;;;10.30;5.75;;;6.70;99.90;;;;;;7389579;19;20014;-77
2024/03/04 07:21:39;;;;;;;16.23;6.05;;;6.70;99.90;;;;;;7386717;19;20254;-80
2024/03/04 07:24:08;;;;;;;11.63;5.78;;;6.70;99.90;;;;;;7391345;19;20002;-78
2024/03/04 07:26:39;;;;;;;12.55;5.82;;;6.70;99.90;;;;;;7386138;19;20028;-83
2024/03/04 07:29:08;;;;;;;11.50;6.93;;;6.70;99.90;;;;;;7408247;19;20011;-82
2024/03/04 07:31:37;;;;;;;13.65;6.10;;;6.80;99.90;;;;;;7382353;19;20057;-77
2024/03/04 07:34:08;;;;;;;18.88;6.40;;;6.80;99.90;;;;;;7385128;19;20027;-77
2024/03/04 07:36:42;;;;;;;;;;;6.90;99.90;;;;;;7388550;19;20477;-78
2024/03/04 07:39:11;;;;;;;11.13;4.75;;;7.00;99.90;;;;;;7384664;19;19970;-79
2024/03/04 07:41:41;;;;;;;11.52;5.70;;;7.00;99.90;;;;;;7385189;19;20063;-79
2024/03/04 07:44:10;;;;;;;15.40;6.13;;;7.10;99.90;;;;;;7406669;19;20015;-79
2024/03/04 07:46:39;;;;;;;11.40;5.63;;;7.10;99.90;;;;;;7383681;19;20047;-79
2024/03/04 07:53:01;;;;;;;11.38;6.78;;;7.30;99.90;;;;;;7417649;19;19979;-86
2024/03/04 07:55:34;;;;;;;14.10;5.90;;;7.30;99.90;;;;;;7384327;19;20046;-78
2024/03/04 07:58:03;;;;;;;10.55;6.05;;;7.40;99.90;;;;;;7383255;19;20498;-79
2024/03/04 08:00:35;;;;;;;12.20;6.57;;;7.50;99.90;;;;;;7382192;19;20238;-78
2024/03/04 08:03:04;;;;;;;30.80;7.60;;;7.60;99.90;;;;;;7381636;19;20003;-77
2024/03/04 08:05:34;;;;;;;14.60;6.90;;;7.60;99.90;;;;;;7382662;19;20067;-77
2024/03/04 08:08:02;;;;;;;14.52;6.47;;;7.70;99.90;;;;;;7403905;19;20028;-78
2024/03/04 08:10:35;;;;;;;14.07;6.70;;;7.80;99.90;;;;;;7381754;19;20009;-80
2024/03/04 08:32:32;;;;;;;14.38;5.32;;;8.20;99.90;;;;;;7406853;19;20017;-81
2024/03/04 08:35:03;;;;;;;9.75;5.70;;;8.30;99.90;;;;;;7383743;19;20003;-82
2024/03/04 08:37:31;;;;;;;;;;;8.40;99.90;;;;;;7384862;19;20019;-75
2024/03/04 08:40:04;;;;;;;8.90;4.82;;;8.50;99.90;;;;;;7380086;19;19970;-75
2024/03/04 08:42:33;;;;;;;17.88;5.65;;;8.50;99.90;;;;;;7379144;19;20009;-76
2024/03/04 08:45:01;;;;;;;13.80;5.85;;;8.60;99.90;;;;;;7379518;19;20093;-76
2024/03/04 08:47:30;;;;;;;17.95;6.28;;;8.60;99.90;;;;;;7381569;19;20385;-76
2024/03/04 08:50:00;;;;;;;14.18;5.90;;;8.70;99.90;;;;;;7400189;19;20042;-78
2024/03/04 08:52:31;;;;;;;17.10;6.95;;;8.80;99.90;;;;;;7379540;19;20401;-75
2024/03/04 08:55:00;;;;;;;15.50;6.47;;;8.80;99.90;;;;;;7379911;19;20102;-75
2024/03/04 08:57:29;;;;;;;13.00;5.68;;;8.90;99.90;;;;;;7379693;19;20054;-75
2024/03/04 09:00:07;;;;;;;10.43;5.15;;;9.00;99.90;;;;;;7380675;19;20006;-81
2024/03/04 09:02:42;;;;;;;18.50;6.32;;;9.00;99.90;;;;;;7382177;19;20011;-82
2024/03/04 09:05:26;;;;;;;15.85;4.82;;;9.10;99.90;;;;;;7404072;19;20028;-81
2024/03/04 09:07:58;;;;;;;14.55;6.20;;;9.10;99.90;;;;;;7383517;19;20267;-80
2024/03/04 09:10:27;;;;;;;12.95;5.80;;;9.10;99.90;;;;;;7383572;19;20026;-77
2024/03/04 09:12:55;;;;;;;10.48;5.13;;;9.20;99.90;;;;;;7388958;19;20016;-77
2024/03/04 09:15:24;;;;;;;10.23;5.70;;;9.20;99.90;;;;;;7380580;19;20363;-75
2024/03/04 09:17:53;;;;;;;11.25;5.90;;;9.30;99.90;;;;;;7382468;19;20007;-76
2024/03/04 09:20:24;;;;;;;18.60;5.88;;;9.30;99.90;;;;;;7402263;19;20060;-78
2024/03/04 09:22:57;;;;;;;20.80;6.40;;;9.30;99.90;;;;;;7385505;19;20071;-79
2024/03/04 09:25:26;;;;;;;12.98;6.20;;;9.40;99.90;;;;;;7384625;19;20006;-79
2024/03/04 09:27:54;;;;;;;13.45;5.50;;;9.40;99.90;;;;;;7382955;19;20062;-80
2024/03/04 09:30:25;;;;;;;11.45;6.00;;;9.50;99.90;;;;;;7381761;19;20014;-80
2024/03/04 09:32:53;;;;;;;20.87;6.47;;;9.50;99.90;;;;;;7386270;19;20361;-81
2024/03/04 09:35:22;;;;;;;14.43;5.07;;;9.50;99.90;;;;;;7406268;19;20071;-84
2024/03/04 09:37:51;;;;;;;13.68;4.95;;;9.50;99.90;;;;;;7391046;19;20007;-77
2024/03/04 09:40:22;;;;;;;14.75;5.28;;;9.60;99.90;;;;;;7381862;19;20066;-77
2024/03/04 09:42:51;;;;;;;;;;;9.60;99.90;;;;;;7380881;19;20070;-78
2024/03/04 09:45:23;;;;;;;7.57;3.90;;;9.60;99.90;;;;;;7378061;19;19931;-76
2024/03/04 09:47:55;;;;;;;9.82;3.00;;;9.70;99.90;;;;;;7378606;19;20007;-77
2024/03/04 09:50:26;;;;;;;7.75;2.40;;;9.70;99.90;;;;;;7404234;19;20018;-80
2024/03/04 09:52:59;;;;;;;8.32;1.85;;;9.80;99.90;;;;;;7381015;19;20026;-79
2024/03/04 09:55:30;;;;;;;9.52;1.67;;;9.70;99.90;;;;;;7377622;19;20006;-76
2024/03/04 09:57:59;;;;;;;;;;;9.80;99.90;;;;;;7378570;19;20070;-79
2024/03/04 10:00:29;;;;;;;11.02;1.70;;;9.60;99.90;;;;;;7378446;19;19982;-78
2024/03/04 10:02:58;;;;;;;5.53;1.52;;;9.70;99.90;;;;;;7382386;19;20080;-78
2024/03/04 10:05:27;;;;;;;4.93;1.48;;;9.70;99.90;;;;;;7401728;19;20058;-80
2024/03/04 10:07:56;;;;;;;12.07;2.47;;;9.70;99.90;;;;;;7384845;19;20062;-81
2024/03/04 10:10:24;;;;;;;8.48;1.80;;;9.80;99.90;;;;;;7381928;19;20019;-79
2024/03/04 10:12:56;;;;;;;5.53;1.67;;;9.90;99.90;;;;;;7379597;19;20040;-77
2024/03/04 10:15:24;;;;;;;9.80;1.73;;;9.90;99.90;;;;;;7382951;19;20020;-77
2024/03/04 10:17:55;;;;;;;6.82;1.50;;;10.00;99.90;;;;;;7389787;19;20024;-77
2024/03/04 10:20:26;;;;;;;4.00;1.60;;;10.00;99.90;;;;;;7400793;19;20042;-77
2024/03/04 10:22:54;;;;;;;;;;;10.00;99.90;;;;;;7378678;19;20003;-77
2024/03/04 10:25:29;;;;;;;8.48;2.40;;;10.10;99.90;;;;;;7392876;19;19926;-77
2024/03/04 10:28:11;;;;;;;9.20;1.95;;;10.10;99.90;;;;;;7402815;19;20059;-82
2024/03/04 10:30:40;;;;;;;6.78;1.67;;;10.20;99.90;;;;;;7401982;19;20027;-78
2024/03/04 10:33:11;;;;;;;4.68;1.45;;;10.20;99.90;;;;;;7400605;19;20014;-77
2024/03/04 10:35:40;;;;;;;5.65;1.35;;;10.20;99.90;;;;;;7396292;19;20014;-77
2024/03/04 10:38:13;;;;;;;5.13;1.20;;;10.20;99.90;;;;;;7419233;19;20010;-77
2024/03/04 10:40:44;;;;;;;5.18;1.00;;;10.20;99.90;;;;;;7384492;19;20355;-75
2024/03/04 10:43:15;;;;;;;9.32;1.10;;;10.10;99.90;;;;;;7378561;19;20006;-75
2024/03/04 10:45:45;;;;;;;11.20;1.40;;;10.10;99.90;;;;;;7376747;19;20028;-76
2024/03/04 10:48:14;;;;;;;7.18;1.25;;;10.20;99.90;;;;;;7381494;19;20367;-77
2024/03/04 10:50:43;;;;;;;7.68;1.20;;;10.30;99.90;;;;;;7377157;19;20078;-76
2024/03/04 10:53:11;;;;;;;8.07;1.13;;;10.30;99.90;;;;;;7401352;19;20078;-78
2024/03/04 10:55:40;;;;;;;11.05;1.10;;;10.30;99.90;;;;;;7376793;19;20006;-78
2024/03/04 10:58:10;;;;;;;4.32;0.88;;;10.30;99.90;;;;;;7378352;19;20023;-78
2024/03/04 11:00:42;;;;;;;4.25;1.00;;;10.30;99.90;;;;;;7379446;19;20017;-77
2024/03/04 11:03:16;;;;;;;10.45;1.40;;;10.20;99.90;;;;;;7375937;19;20006;-80
2024/03/04 11:05:49;;;;;;;2.50;1.08;;;10.30;99.90;;;;;;7376959;19;20260;-79
2024/03/04 11:08:23;;;;;;;5.00;1.02;;;10.40;99.90;;;;;;7408107;19;20353;-80
2024/03/04 11:11:02;;;;;;;6.00;1.30;;;10.30;99.90;;;;;;7386949;19;20676;-81
2024/03/04 11:13:41;;;;;;;10.57;1.27;;;10.40;99.90;;;;;;7384409;19;20079;-77
2024/03/04 11:16:19;;;;;;;11.00;1.02;;;10.40;99.90;;;;;;7387701;19;20015;-79
2024/03/04 11:19:01;;;;;;;3.33;1.10;;;10.50;99.90;;;;;;7386448;19;20007;-81
2024/03/04 11:21:31;;;;;;;2.45;0.98;;;10.50;99.90;;;;;;7383705;19;20007;-77
2024/03/04 11:24:00;;;;;;;9.45;1.10;;;10.40;99.90;;;;;;7385347;19;20398;-78
2024/03/04 11:26:30;;;;;;;7.97;1.30;;;10.50;99.90;;;;;;7409836;19;20002;-78
2024/03/04 11:29:00;;;;;;;5.20;1.00;;;10.60;99.90;;;;;;7386116;19;20024;-80
2024/03/04 11:31:32;;;;;;;9.13;1.17;;;10.70;99.90;;;;;;7385369;19;20030;-79
2024/03/04 11:40:31;;;;;;;11.25;1.45;;;10.70;99.90;;;;;;7399035;19;20006;-74
2024/03/04 11:43:00;;;;;;;3.00;1.50;;;10.80;99.90;;;;;;7384412;19;20078;-78
2024/03/04 11:45:35;;;;;;;2.38;1.08;;;10.90;99.90;;;;;;7381507;19;20003;-79
2024/03/04 11:48:30;;;;;;;7.88;1.67;;;10.90;99.90;;;;;;7377442;19;20010;-81
2024/03/04 11:50:59;;;;;;;3.38;1.25;;;11.10;99.90;;;;;;7380122;19;20004;-80
2024/03/04 11:53:34;;;;;;;5.47;1.30;;;11.00;99.90;;;;;;7410547;19;20011;-83
2024/03/04 11:59:41;;;;;;;;;;;;;;;;;;;;;
2024/03/04 12:05:17;;;;;;;3.83;1.05;;;11.20;99.90;;;;;;7385429;19;20006;-80
2024/03/04 12:07:53;;;;;;;2.40;1.20;;;11.30;99.90;;;;;;7411164;19;20010;-80
2024/03/04 12:10:24;;;;;;;11.27;1.85;;;11.40;99.90;;;;;;7385732;19;20010;-79
2024/03/04 12:12:52;;;;;;;36.88;3.08;;;11.40;99.90;;;;;;7383765;19;20034;-77
2024/03/04 12:15:23;;;;;;;17.45;1.95;;;11.50;99.90;;;;;;7381847;19;20011;-76
2024/03/04 12:17:54;;;;;;;4.47;1.17;;;11.50;99.90;;;;;;7382483;19;20023;-75
2024/03/04 12:20:26;;;;;;;5.15;1.25;;;11.60;99.90;;;;;;7406512;19;20090;-76
2024/03/04 12:22:56;;;;;;;7.18;1.45;;;11.50;99.90;;;;;;7384052;19;20027;-77
2024/03/04 12:25:26;;;;;;;2.80;1.10;;;11.60;99.90;;;;;;7385939;19;20023;-79
2024/03/04 12:27:57;;;;;;;2.53;1.05;;;11.60;99.90;;;;;;7384975;19;20116;-78
2024/03/04 12:30:27;;;;;;;10.25;1.35;;;11.70;99.90;;;;;;7386393;19;20006;-79
2024/03/04 12:33:03;;;;;;;5.38;1.38;;;11.80;99.90;;;;;;7382093;19;20003;-78
2024/03/04 12:35:34;;;;;;;5.50;1.70;;;11.80;99.90;;;;;;7407570;19;20007;-78
2024/03/04 12:38:05;;;;;;;6.32;1.20;;;11.90;99.90;;;;;;7385093;19;20358;-78
2024/03/04 12:40:57;;;;;;;7.63;1.35;;;12.00;99.90;;;;;;7387543;19;20066;-82
2024/03/04 12:43:26;;;;;;;4.22;1.10;;;12.10;99.90;;;;;;7385329;19;20014;-77
2024/03/04 12:45:55;;;;;;;3.47;1.65;;;12.10;99.90;;;;;;7384694;19;20006;-75
2024/03/04 12:48:26;;;;;;;11.25;1.58;;;12.10;99.90;;;;;;7386708;19;20118;-78
2024/03/04 12:50:58;;;;;;;4.88;1.77;;;12.20;99.90;;;;;;7390001;19;20352;-78
2024/03/04 12:53:27;;;;;;;6.18;1.17;;;12.20;99.90;;;;;;7409131;19;20030;-78
2024/03/04 12:55:58;;;;;;;4.63;1.00;;;12.30;99.90;;;;;;7386865;19;20011;-79
2024/03/04 12:58:27;;;;;;;4.95;1.08;;;12.40;99.90;;;;;;7389452;19;20010;-79
2024/03/04 13:00:56;;;;;;;4.47;1.42;;;12.40;99.90;;;;;;7388731;19;20003;-76
2024/03/04 13:03:33;;;;;;;6.30;1.17;;;12.50;99.90;;;;;;7389453;19;20023;-78
2024/03/04 13:06:04;;;;;;;7.85;1.13;;;12.60;99.90;;;;;;7388057;19;20387;-77
2024/03/04 13:08:39;;;;;;;;;;;12.60;99.90;;;;;;7412024;19;20015;-80
2024/03/04 13:11:08;;;;;;;2.28;1.17;;;12.70;99.90;;;;;;7387942;19;19915;-79
2024/03/04 13:13:36;;;;;;;3.92;0.93;;;12.70;99.90;;;;;;7387154;19;20006;-77
2024/03/04 13:16:22;;;;;;;2.92;0.80;;;12.70;99.90;;;;;;7392088;19;20039;-83
2024/03/04 13:18:51;;;;;;;1.15;0.70;;;12.70;99.90;;;;;;7388623;19;20014;-78
2024/03/04 13:21:22;;;;;;;4.03;0.90;;;12.70;99.90;;;;;;7387017;19;20011;-76
2024/03/04 13:23:53;;;;;;;3.15;0.95;;;12.70;99.90;;;;;;7384394;19;20027;-79
2024/03/04 13:26:22;;;;;;;1.42;0.70;;;12.80;99.90;;;;;;7407639;19;20283;-78
2024/03/04 13:29:20;;;;;;;4.00;0.90;;;12.80;99.90;;;;;;7383618;19;20279;-84
2024/03/04 13:31:51;;;;;;;4.25;0.77;;;12.90;99.90;;;;;;7388501;19;20006;-82
2024/03/04 13:34:19;;;;;;;;;;;12.60;99.90;;;;;;7391261;19;20028;-82
2024/03/04 13:36:51;;;;;;;1.85;0.45;;;12.60;99.90;;;;;;7387469;19;19915;-77
2024/03/04 13:39:19;;;;;;;5.22;1.00;;;12.70;99.90;;;;;;7390406;19;20263;-76
2024/03/04 13:41:48;;;;;;;6.68;0.90;;;12.90;99.90;;;;;;7412962;19;20074;-75
2024/03/04 13:44:18;;;;;;;4.07;1.13;;;12.80;99.90;;;;;;7392854;19;20386;-77
2024/03/04 13:46:49;;;;;;;3.28;0.90;;;12.90;99.90;;;;;;7392881;19;20275;-78